sensor_id;sensor_type;location;lat;lon;timestamp;P1;durP1;ratioP1;P2;durP2;ratioP2
56860;SDS011;42744;51.094;3.490;2023-06-26T00:00:45;6.28;;;3.10;;
56860;SDS011;42744;51.094;3.490;2023-06-26T00:03:13;6.12;;;3.45;;
56860;SDS011;42744;51.094;3.490;2023-06-26T00:05:40;5.40;;;3.22;;
56860;SDS011;42744;51.094;3.490;2023-06-26T00:08:07;5.65;;;3.17;;
56860;SDS011;42744;51.094;3.490;2023-06-26T00:10:33;6.03;;;3.22;;
56860;SDS011;42744;51.094;3.490;2023-06-26T00:13:00;7.07;;;2.97;;
56860;SDS011;42744;51.094;3.490;2023-06-26T00:15:27;5.72;;;3.20;;
56860;SDS011;42744;51.094;3.490;2023-06-26T00:17:57;7.20;;;3.60;;
56860;SDS011;42744;51.094;3.490;2023-06-26T00:20:24;6.93;;;3.37;;
56860;SDS011;42744;51.094;3.490;2023-06-26T00:22:50;7.43;;;3.40;;
56860;SDS011;42744;51.094;3.490;2023-06-26T00:25:17;6.85;;;3.65;;
56860;SDS011;42744;51.094;3.490;2023-06-26T00:27:43;6.35;;;3.42;;
56860;SDS011;42744;51.094;3.490;2023-06-26T00:30:09;8.57;;;3.22;;
56860;SDS011;42744;51.094;3.490;2023-06-26T00:32:36;7.65;;;3.60;;
56860;SDS011;42744;51.094;3.490;2023-06-26T00:35:02;8.25;;;3.60;;
56860;SDS011;42744;51.094;3.490;2023-06-26T00:37:28;7.30;;;3.70;;
56860;SDS011;42744;51.094;3.490;2023-06-26T00:39:54;7.40;;;3.58;;
56860;SDS011;42744;51.094;3.490;2023-06-26T00:42:22;7.90;;;3.35;;
56860;SDS011;42744;51.094;3.490;2023-06-26T00:44:47;8.25;;;3.50;;
56860;SDS011;42744;51.094;3.490;2023-06-26T00:47:14;6.25;;;2.87;;
56860;SDS011;42744;51.094;3.490;2023-06-26T00:49:41;8.13;;;3.53;;
56860;SDS011;42744;51.094;3.490;2023-06-26T00:52:07;7.18;;;3.20;;
56860;SDS011;42744;51.094;3.490;2023-06-26T00:54:33;9.27;;;3.85;;
56860;SDS011;42744;51.094;3.490;2023-06-26T00:56:59;7.00;;;3.97;;
56860;SDS011;42744;51.094;3.490;2023-06-26T00:59:25;6.28;;;3.20;;
56860;SDS011;42744;51.094;3.490;2023-06-26T01:01:54;5.97;;;3.90;;
56860;SDS011;42744;51.094;3.490;2023-06-26T01:04:20;9.13;;;3.58;;
56860;SDS011;42744;51.094;3.490;2023-06-26T01:06:46;6.45;;;3.28;;
56860;SDS011;42744;51.094;3.490;2023-06-26T01:09:18;7.15;;;3.70;;
56860;SDS011;42744;51.094;3.490;2023-06-26T01:11:44;6.60;;;3.45;;
56860;SDS011;42744;51.094;3.490;2023-06-26T01:14:10;7.12;;;3.80;;
56860;SDS011;42744;51.094;3.490;2023-06-26T01:16:37;9.73;;;4.10;;
56860;SDS011;42744;51.094;3.490;2023-06-26T01:19:09;10.95;;;4.40;;
56860;SDS011;42744;51.094;3.490;2023-06-26T01:21:40;6.30;;;4.28;;
56860;SDS011;42744;51.094;3.490;2023-06-26T01:24:16;8.55;;;3.50;;
56860;SDS011;42744;51.094;3.490;2023-06-26T01:26:48;7.85;;;4.35;;
56860;SDS011;42744;51.094;3.490;2023-06-26T01:29:20;8.60;;;4.28;;
56860;SDS011;42744;51.094;3.490;2023-06-26T01:31:49;9.90;;;4.20;;
56860;SDS011;42744;51.094;3.490;2023-06-26T01:34:15;11.43;;;4.45;;
56860;SDS011;42744;51.094;3.490;2023-06-26T01:36:43;11.70;;;4.68;;
56860;SDS011;42744;51.094;3.490;2023-06-26T01:39:15;9.82;;;4.03;;
56860;SDS011;42744;51.094;3.490;2023-06-26T01:41:44;9.68;;;4.35;;
56860;SDS011;42744;51.094;3.490;2023-06-26T01:47:00;13.18;;;4.72;;
56860;SDS011;42744;51.094;3.490;2023-06-26T01:49:43;9.60;;;4.07;;
56860;SDS011;42744;51.094;3.490;2023-06-26T01:52:22;11.23;;;3.83;;
56860;SDS011;42744;51.094;3.490;2023-06-26T01:54:59;13.57;;;4.62;;
56860;SDS011;42744;51.094;3.490;2023-06-26T01:57:37;13.93;;;4.60;;
56860;SDS011;42744;51.094;3.490;2023-06-26T02:00:04;18.58;;;4.93;;
56860;SDS011;42744;51.094;3.490;2023-06-26T02:02:40;14.68;;;5.10;;
56860;SDS011;42744;51.094;3.490;2023-06-26T02:05:07;13.25;;;4.80;;
56860;SDS011;42744;51.094;3.490;2023-06-26T02:07:34;14.38;;;4.70;;
56860;SDS011;42744;51.094;3.490;2023-06-26T02:10:02;15.10;;;4.87;;
56860;SDS011;42744;51.094;3.490;2023-06-26T02:12:28;15.07;;;4.93;;
56860;SDS011;42744;51.094;3.490;2023-06-26T02:14:54;17.37;;;4.72;;
56860;SDS011;42744;51.094;3.490;2023-06-26T02:17:22;10.73;;;4.75;;
56860;SDS011;42744;51.094;3.490;2023-06-26T02:19:48;13.82;;;4.82;;
56860;SDS011;42744;51.094;3.490;2023-06-26T02:22:14;9.20;;;4.40;;
56860;SDS011;42744;51.094;3.490;2023-06-26T02:24:41;10.32;;;4.57;;
56860;SDS011;42744;51.094;3.490;2023-06-26T02:27:08;13.03;;;4.43;;
56860;SDS011;42744;51.094;3.490;2023-06-26T02:29:35;15.70;;;5.00;;
56860;SDS011;42744;51.094;3.490;2023-06-26T02:32:01;11.27;;;4.87;;
56860;SDS011;42744;51.094;3.490;2023-06-26T02:34:27;12.13;;;4.70;;
56860;SDS011;42744;51.094;3.490;2023-06-26T02:36:53;14.77;;;5.40;;
56860;SDS011;42744;51.094;3.490;2023-06-26T02:39:20;13.83;;;4.47;;
56860;SDS011;42744;51.094;3.490;2023-06-26T02:41:47;16.63;;;4.80;;
56860;SDS011;42744;51.094;3.490;2023-06-26T02:44:13;11.93;;;4.80;;
56860;SDS011;42744;51.094;3.490;2023-06-26T02:46:40;10.97;;;4.77;;
56860;SDS011;42744;51.094;3.490;2023-06-26T02:49:06;12.00;;;4.83;;
56860;SDS011;42744;51.094;3.490;2023-06-26T02:51:33;17.00;;;5.17;;
56860;SDS011;42744;51.094;3.490;2023-06-26T02:54:00;13.70;;;4.27;;
56860;SDS011;42744;51.094;3.490;2023-06-26T02:56:26;14.00;;;4.77;;
56860;SDS011;42744;51.094;3.490;2023-06-26T02:58:54;14.53;;;4.97;;
56860;SDS011;42744;51.094;3.490;2023-06-26T03:01:21;17.53;;;5.67;;
56860;SDS011;42744;51.094;3.490;2023-06-26T03:03:48;17.53;;;4.70;;
56860;SDS011;42744;51.094;3.490;2023-06-26T03:06:14;10.27;;;3.90;;
56860;SDS011;42744;51.094;3.490;2023-06-26T03:08:40;15.00;;;4.83;;
56860;SDS011;42744;51.094;3.490;2023-06-26T03:11:07;14.53;;;4.83;;
56860;SDS011;42744;51.094;3.490;2023-06-26T03:13:35;14.73;;;4.33;;
56860;SDS011;42744;51.094;3.490;2023-06-26T03:16:02;13.90;;;5.30;;
56860;SDS011;42744;51.094;3.490;2023-06-26T03:18:29;18.17;;;4.63;;
56860;SDS011;42744;51.094;3.490;2023-06-26T03:20:56;13.27;;;4.67;;
56860;SDS011;42744;51.094;3.490;2023-06-26T03:23:23;15.37;;;5.57;;
56860;SDS011;42744;51.094;3.490;2023-06-26T03:25:50;12.93;;;4.50;;
56860;SDS011;42744;51.094;3.490;2023-06-26T03:28:18;12.07;;;4.80;;
56860;SDS011;42744;51.094;3.490;2023-06-26T03:30:45;13.60;;;4.10;;
56860;SDS011;42744;51.094;3.490;2023-06-26T03:33:11;14.33;;;4.47;;
56860;SDS011;42744;51.094;3.490;2023-06-26T03:35:37;13.90;;;4.33;;
56860;SDS011;42744;51.094;3.490;2023-06-26T03:38:04;19.70;;;4.60;;
56860;SDS011;42744;51.094;3.490;2023-06-26T03:40:31;13.10;;;4.47;;
56860;SDS011;42744;51.094;3.490;2023-06-26T03:42:57;11.57;;;4.40;;
56860;SDS011;42744;51.094;3.490;2023-06-26T03:45:24;12.23;;;4.27;;
56860;SDS011;42744;51.094;3.490;2023-06-26T03:47:50;14.00;;;4.27;;
56860;SDS011;42744;51.094;3.490;2023-06-26T03:50:16;13.30;;;4.47;;
56860;SDS011;42744;51.094;3.490;2023-06-26T03:52:42;14.40;;;5.07;;
56860;SDS011;42744;51.094;3.490;2023-06-26T03:55:11;19.27;;;4.67;;
56860;SDS011;42744;51.094;3.490;2023-06-26T03:57:37;13.80;;;4.30;;
56860;SDS011;42744;51.094;3.490;2023-06-26T04:00:03;15.03;;;4.30;;
56860;SDS011;42744;51.094;3.490;2023-06-26T04:02:40;13.43;;;4.33;;
56860;SDS011;42744;51.094;3.490;2023-06-26T04:05:06;16.53;;;4.10;;
56860;SDS011;42744;51.094;3.490;2023-06-26T04:07:33;11.73;;;4.50;;
56860;SDS011;42744;51.094;3.490;2023-06-26T04:09:59;13.93;;;4.10;;
56860;SDS011;42744;51.094;3.490;2023-06-26T04:12:26;12.30;;;3.67;;
56860;SDS011;42744;51.094;3.490;2023-06-26T04:14:52;15.67;;;4.63;;
56860;SDS011;42744;51.094;3.490;2023-06-26T04:17:18;10.87;;;3.40;;
56860;SDS011;42744;51.094;3.490;2023-06-26T04:19:45;12.70;;;4.60;;
56860;SDS011;42744;51.094;3.490;2023-06-26T04:22:11;15.87;;;4.57;;
56860;SDS011;42744;51.094;3.490;2023-06-26T04:24:36;12.93;;;3.93;;
56860;SDS011;42744;51.094;3.490;2023-06-26T04:27:03;15.77;;;4.23;;
56860;SDS011;42744;51.094;3.490;2023-06-26T04:29:29;9.37;;;3.10;;
56860;SDS011;42744;51.094;3.490;2023-06-26T04:31:55;10.67;;;3.90;;
56860;SDS011;42744;51.094;3.490;2023-06-26T04:34:24;8.00;;;3.27;;
56860;SDS011;42744;51.094;3.490;2023-06-26T04:36:50;10.30;;;3.60;;
56860;SDS011;42744;51.094;3.490;2023-06-26T04:39:17;10.13;;;3.10;;
56860;SDS011;42744;51.094;3.490;2023-06-26T04:41:44;8.70;;;3.23;;
56860;SDS011;42744;51.094;3.490;2023-06-26T04:44:10;8.37;;;2.90;;
56860;SDS011;42744;51.094;3.490;2023-06-26T04:46:36;9.13;;;3.00;;
56860;SDS011;42744;51.094;3.490;2023-06-26T04:49:05;9.00;;;3.20;;
56860;SDS011;42744;51.094;3.490;2023-06-26T04:51:31;9.97;;;2.37;;
56860;SDS011;42744;51.094;3.490;2023-06-26T04:53:57;10.30;;;2.57;;
56860;SDS011;42744;51.094;3.490;2023-06-26T04:56:23;9.77;;;3.20;;
56860;SDS011;42744;51.094;3.490;2023-06-26T04:58:49;8.70;;;2.57;;
56860;SDS011;42744;51.094;3.490;2023-06-26T05:01:15;8.37;;;2.43;;
56860;SDS011;42744;51.094;3.490;2023-06-26T05:03:42;13.70;;;2.53;;
56860;SDS011;42744;51.094;3.490;2023-06-26T05:06:08;9.37;;;2.70;;
56860;SDS011;42744;51.094;3.490;2023-06-26T05:08:34;7.30;;;2.73;;
56860;SDS011;42744;51.094;3.490;2023-06-26T05:11:00;12.83;;;2.83;;
56860;SDS011;42744;51.094;3.490;2023-06-26T05:13:26;6.70;;;2.03;;
56860;SDS011;42744;51.094;3.490;2023-06-26T05:15:53;7.33;;;2.33;;
56860;SDS011;42744;51.094;3.490;2023-06-26T05:18:19;9.50;;;2.37;;
56860;SDS011;42744;51.094;3.490;2023-06-26T05:20:45;9.63;;;2.13;;
56860;SDS011;42744;51.094;3.490;2023-06-26T05:23:14;8.10;;;2.43;;
56860;SDS011;42744;51.094;3.490;2023-06-26T05:25:42;6.77;;;2.37;;
56860;SDS011;42744;51.094;3.490;2023-06-26T05:28:08;6.67;;;2.13;;
56860;SDS011;42744;51.094;3.490;2023-06-26T05:30:37;6.57;;;1.70;;
56860;SDS011;42744;51.094;3.490;2023-06-26T05:33:03;7.93;;;1.80;;
56860;SDS011;42744;51.094;3.490;2023-06-26T05:35:31;7.70;;;2.10;;
56860;SDS011;42744;51.094;3.490;2023-06-26T05:37:57;4.77;;;1.50;;
56860;SDS011;42744;51.094;3.490;2023-06-26T05:40:24;5.73;;;1.50;;
56860;SDS011;42744;51.094;3.490;2023-06-26T05:42:51;7.27;;;1.87;;
56860;SDS011;42744;51.094;3.490;2023-06-26T05:45:17;6.67;;;1.70;;
56860;SDS011;42744;51.094;3.490;2023-06-26T05:47:43;4.47;;;1.40;;
56860;SDS011;42744;51.094;3.490;2023-06-26T05:50:09;7.93;;;2.13;;
56860;SDS011;42744;51.094;3.490;2023-06-26T05:52:36;9.50;;;1.77;;
56860;SDS011;42744;51.094;3.490;2023-06-26T05:55:04;5.33;;;1.77;;
56860;SDS011;42744;51.094;3.490;2023-06-26T05:57:31;6.33;;;1.90;;
56860;SDS011;42744;51.094;3.490;2023-06-26T05:59:57;8.87;;;1.87;;
56860;SDS011;42744;51.094;3.490;2023-06-26T06:02:23;8.13;;;2.13;;
56860;SDS011;42744;51.094;3.490;2023-06-26T06:04:49;4.27;;;1.50;;
56860;SDS011;42744;51.094;3.490;2023-06-26T06:07:15;5.10;;;1.87;;
56860;SDS011;42744;51.094;3.490;2023-06-26T06:09:41;8.50;;;2.00;;
56860;SDS011;42744;51.094;3.490;2023-06-26T06:12:07;7.37;;;2.17;;
56860;SDS011;42744;51.094;3.490;2023-06-26T06:14:34;4.37;;;1.60;;
56860;SDS011;42744;51.094;3.490;2023-06-26T06:17:00;8.07;;;1.47;;
56860;SDS011;42744;51.094;3.490;2023-06-26T06:19:26;4.07;;;1.27;;
56860;SDS011;42744;51.094;3.490;2023-06-26T06:21:53;6.13;;;1.60;;
56860;SDS011;42744;51.094;3.490;2023-06-26T06:24:19;6.00;;;2.00;;
56860;SDS011;42744;51.094;3.490;2023-06-26T06:26:46;6.00;;;1.83;;
56860;SDS011;42744;51.094;3.490;2023-06-26T06:29:11;10.50;;;1.63;;
56860;SDS011;42744;51.094;3.490;2023-06-26T06:31:37;7.73;;;1.53;;
56860;SDS011;42744;51.094;3.490;2023-06-26T06:34:04;7.97;;;1.60;;
56860;SDS011;42744;51.094;3.490;2023-06-26T06:36:29;5.37;;;1.63;;
56860;SDS011;42744;51.094;3.490;2023-06-26T06:38:56;5.40;;;1.53;;
56860;SDS011;42744;51.094;3.490;2023-06-26T06:41:22;5.90;;;1.60;;
56860;SDS011;42744;51.094;3.490;2023-06-26T06:43:48;4.57;;;1.40;;
56860;SDS011;42744;51.094;3.490;2023-06-26T06:46:14;6.13;;;1.40;;
56860;SDS011;42744;51.094;3.490;2023-06-26T06:48:40;8.17;;;1.40;;
56860;SDS011;42744;51.094;3.490;2023-06-26T06:51:06;8.27;;;1.50;;
56860;SDS011;42744;51.094;3.490;2023-06-26T06:53:32;5.30;;;1.53;;
56860;SDS011;42744;51.094;3.490;2023-06-26T06:55:58;5.93;;;1.67;;
56860;SDS011;42744;51.094;3.490;2023-06-26T06:58:24;6.43;;;1.60;;
56860;SDS011;42744;51.094;3.490;2023-06-26T07:00:49;8.03;;;1.57;;
56860;SDS011;42744;51.094;3.490;2023-06-26T07:03:17;4.20;;;1.20;;
56860;SDS011;42744;51.094;3.490;2023-06-26T07:05:43;7.23;;;1.43;;
56860;SDS011;42744;51.094;3.490;2023-06-26T07:08:09;6.23;;;1.50;;
56860;SDS011;42744;51.094;3.490;2023-06-26T07:10:36;5.60;;;1.67;;
56860;SDS011;42744;51.094;3.490;2023-06-26T07:13:01;5.70;;;1.27;;
56860;SDS011;42744;51.094;3.490;2023-06-26T07:15:28;5.03;;;1.47;;
56860;SDS011;42744;51.094;3.490;2023-06-26T07:17:54;3.50;;;1.53;;
56860;SDS011;42744;51.094;3.490;2023-06-26T07:20:20;5.87;;;1.37;;
56860;SDS011;42744;51.094;3.490;2023-06-26T07:22:46;9.70;;;1.50;;
56860;SDS011;42744;51.094;3.490;2023-06-26T07:25:12;4.73;;;1.63;;
56860;SDS011;42744;51.094;3.490;2023-06-26T07:27:38;6.77;;;1.63;;
56860;SDS011;42744;51.094;3.490;2023-06-26T07:30:05;4.03;;;1.10;;
56860;SDS011;42744;51.094;3.490;2023-06-26T07:32:34;6.22;;;1.48;;
56860;SDS011;42744;51.094;3.490;2023-06-26T07:35:00;5.10;;;1.62;;
56860;SDS011;42744;51.094;3.490;2023-06-26T07:37:26;4.83;;;1.50;;
56860;SDS011;42744;51.094;3.490;2023-06-26T07:39:59;6.10;;;1.30;;
56860;SDS011;42744;51.094;3.490;2023-06-26T07:42:25;8.52;;;1.50;;
56860;SDS011;42744;51.094;3.490;2023-06-26T07:44:51;3.20;;;1.20;;
56860;SDS011;42744;51.094;3.490;2023-06-26T07:47:17;6.13;;;1.73;;
56860;SDS011;42744;51.094;3.490;2023-06-26T07:49:43;3.45;;;1.15;;
56860;SDS011;42744;51.094;3.490;2023-06-26T07:52:09;6.60;;;1.87;;
56860;SDS011;42744;51.094;3.490;2023-06-26T07:54:38;2.62;;;1.33;;
56860;SDS011;42744;51.094;3.490;2023-06-26T07:57:04;4.55;;;1.10;;
56860;SDS011;42744;51.094;3.490;2023-06-26T07:59:34;2.87;;;1.20;;
56860;SDS011;42744;51.094;3.490;2023-06-26T08:02:00;4.60;;;1.45;;
56860;SDS011;42744;51.094;3.490;2023-06-26T08:04:27;5.43;;;1.77;;
56860;SDS011;42744;51.094;3.490;2023-06-26T08:06:57;6.00;;;1.75;;
56860;SDS011;42744;51.094;3.490;2023-06-26T08:09:25;4.25;;;1.73;;
56860;SDS011;42744;51.094;3.490;2023-06-26T08:11:52;7.28;;;1.60;;
56860;SDS011;42744;51.094;3.490;2023-06-26T08:14:19;4.68;;;1.73;;
56860;SDS011;42744;51.094;3.490;2023-06-26T08:16:45;4.10;;;1.30;;
56860;SDS011;42744;51.094;3.490;2023-06-26T08:19:13;4.20;;;1.60;;
56860;SDS011;42744;51.094;3.490;2023-06-26T08:21:43;4.28;;;1.17;;
56860;SDS011;42744;51.094;3.490;2023-06-26T08:24:10;5.78;;;1.50;;
56860;SDS011;42744;51.094;3.490;2023-06-26T08:26:36;7.93;;;1.90;;
56860;SDS011;42744;51.094;3.490;2023-06-26T08:29:02;3.97;;;1.35;;
56860;SDS011;42744;51.094;3.490;2023-06-26T08:31:33;2.92;;;1.48;;
56860;SDS011;42744;51.094;3.490;2023-06-26T08:34:00;3.22;;;1.08;;
56860;SDS011;42744;51.094;3.490;2023-06-26T08:36:30;3.92;;;1.48;;
56860;SDS011;42744;51.094;3.490;2023-06-26T08:38:56;7.20;;;1.80;;
56860;SDS011;42744;51.094;3.490;2023-06-26T08:41:23;5.90;;;1.60;;
56860;SDS011;42744;51.094;3.490;2023-06-26T08:43:49;4.97;;;1.65;;
56860;SDS011;42744;51.094;3.490;2023-06-26T08:46:18;6.50;;;1.80;;
56860;SDS011;42744;51.094;3.490;2023-06-26T08:48:48;4.05;;;1.42;;
56860;SDS011;42744;51.094;3.490;2023-06-26T08:51:19;3.70;;;1.55;;
56860;SDS011;42744;51.094;3.490;2023-06-26T08:53:56;6.80;;;1.52;;
56860;SDS011;42744;51.094;3.490;2023-06-26T08:56:24;4.43;;;1.23;;
56860;SDS011;42744;51.094;3.490;2023-06-26T08:58:57;4.68;;;1.48;;
56860;SDS011;42744;51.094;3.490;2023-06-26T09:01:24;4.62;;;1.25;;
56860;SDS011;42744;51.094;3.490;2023-06-26T09:03:50;5.28;;;1.60;;
56860;SDS011;42744;51.094;3.490;2023-06-26T09:06:17;1.67;;;0.93;;
56860;SDS011;42744;51.094;3.490;2023-06-26T09:08:43;4.72;;;1.40;;
56860;SDS011;42744;51.094;3.490;2023-06-26T09:11:09;6.68;;;1.48;;
56860;SDS011;42744;51.094;3.490;2023-06-26T09:13:36;6.87;;;1.83;;
56860;SDS011;42744;51.094;3.490;2023-06-26T09:16:08;3.35;;;1.20;;
56860;SDS011;42744;51.094;3.490;2023-06-26T09:18:34;4.87;;;1.52;;
56860;SDS011;42744;51.094;3.490;2023-06-26T09:21:07;8.20;;;1.30;;
56860;SDS011;42744;51.094;3.490;2023-06-26T09:23:34;2.67;;;1.30;;
56860;SDS011;42744;51.094;3.490;2023-06-26T09:26:02;3.25;;;1.87;;
56860;SDS011;42744;51.094;3.490;2023-06-26T09:28:29;4.70;;;1.35;;
56860;SDS011;42744;51.094;3.490;2023-06-26T09:30:59;4.43;;;1.00;;
56860;SDS011;42744;51.094;3.490;2023-06-26T09:33:26;4.82;;;1.40;;
56860;SDS011;42744;51.094;3.490;2023-06-26T09:35:52;4.93;;;1.27;;
56860;SDS011;42744;51.094;3.490;2023-06-26T09:38:18;4.50;;;1.52;;
56860;SDS011;42744;51.094;3.490;2023-06-26T09:40:46;6.90;;;1.42;;
56860;SDS011;42744;51.094;3.490;2023-06-26T09:43:12;2.92;;;1.10;;
56860;SDS011;42744;51.094;3.490;2023-06-26T09:45:39;4.03;;;1.35;;
56860;SDS011;42744;51.094;3.490;2023-06-26T09:48:06;3.58;;;1.60;;
56860;SDS011;42744;51.094;3.490;2023-06-26T09:50:36;3.08;;;0.98;;
56860;SDS011;42744;51.094;3.490;2023-06-26T09:53:10;4.55;;;1.33;;
56860;SDS011;42744;51.094;3.490;2023-06-26T09:55:40;6.53;;;1.62;;
56860;SDS011;42744;51.094;3.490;2023-06-26T09:58:12;2.75;;;1.40;;
56860;SDS011;42744;51.094;3.490;2023-06-26T10:00:40;4.95;;;1.02;;
56860;SDS011;42744;51.094;3.490;2023-06-26T10:03:08;4.47;;;1.30;;
56860;SDS011;42744;51.094;3.490;2023-06-26T10:05:36;3.50;;;1.30;;
56860;SDS011;42744;51.094;3.490;2023-06-26T10:08:03;4.00;;;1.00;;
56860;SDS011;42744;51.094;3.490;2023-06-26T10:10:32;5.35;;;1.20;;
56860;SDS011;42744;51.094;3.490;2023-06-26T10:13:03;3.75;;;1.12;;
56860;SDS011;42744;51.094;3.490;2023-06-26T10:15:34;5.28;;;1.20;;
56860;SDS011;42744;51.094;3.490;2023-06-26T10:18:01;11.88;;;1.48;;
56860;SDS011;42744;51.094;3.490;2023-06-26T10:20:27;4.18;;;1.40;;
56860;SDS011;42744;51.094;3.490;2023-06-26T10:22:55;3.55;;;1.20;;
56860;SDS011;42744;51.094;3.490;2023-06-26T10:25:25;3.97;;;1.00;;
56860;SDS011;42744;51.094;3.490;2023-06-26T10:27:53;5.20;;;1.30;;
56860;SDS011;42744;51.094;3.490;2023-06-26T10:30:24;2.58;;;1.20;;
56860;SDS011;42744;51.094;3.490;2023-06-26T10:32:53;3.53;;;1.20;;
56860;SDS011;42744;51.094;3.490;2023-06-26T10:35:21;4.82;;;1.02;;
56860;SDS011;42744;51.094;3.490;2023-06-26T10:37:48;2.50;;;0.95;;
56860;SDS011;42744;51.094;3.490;2023-06-26T10:40:22;3.75;;;0.90;;
56860;SDS011;42744;51.094;3.490;2023-06-26T10:42:51;3.12;;;1.20;;
56860;SDS011;42744;51.094;3.490;2023-06-26T10:45:32;2.35;;;1.00;;
56860;SDS011;42744;51.094;3.490;2023-06-26T10:47:59;3.95;;;1.27;;
56860;SDS011;42744;51.094;3.490;2023-06-26T10:50:29;4.15;;;1.27;;
56860;SDS011;42744;51.094;3.490;2023-06-26T10:56:04;3.35;;;1.23;;
56860;SDS011;42744;51.094;3.490;2023-06-26T11:06:17;5.47;;;1.17;;
56860;SDS011;42744;51.094;3.490;2023-06-26T11:08:49;2.80;;;0.93;;
56860;SDS011;42744;51.094;3.490;2023-06-26T11:11:19;3.33;;;1.23;;
56860;SDS011;42744;51.094;3.490;2023-06-26T11:13:46;4.32;;;1.20;;
56860;SDS011;42744;51.094;3.490;2023-06-26T11:16:13;3.62;;;1.00;;
56860;SDS011;42744;51.094;3.490;2023-06-26T11:18:40;2.17;;;1.23;;
56860;SDS011;42744;51.094;3.490;2023-06-26T11:21:11;6.40;;;1.58;;
56860;SDS011;42744;51.094;3.490;2023-06-26T11:23:40;6.65;;;1.20;;
56860;SDS011;42744;51.094;3.490;2023-06-26T11:26:14;2.25;;;0.90;;
56860;SDS011;42744;51.094;3.490;2023-06-26T11:28:51;2.67;;;1.05;;
56860;SDS011;42744;51.094;3.490;2023-06-26T11:31:41;3.90;;;1.20;;
56860;SDS011;42744;51.094;3.490;2023-06-26T11:34:08;2.92;;;1.25;;
56860;SDS011;42744;51.094;3.490;2023-06-26T11:36:37;4.57;;;1.17;;
56860;SDS011;42744;51.094;3.490;2023-06-26T11:39:08;2.53;;;1.00;;
56860;SDS011;42744;51.094;3.490;2023-06-26T11:41:39;3.03;;;1.20;;
56860;SDS011;42744;51.094;3.490;2023-06-26T11:44:06;3.33;;;1.20;;
56860;SDS011;42744;51.094;3.490;2023-06-26T11:46:34;3.00;;;1.10;;
56860;SDS011;42744;51.094;3.490;2023-06-26T11:49:07;3.20;;;0.90;;
56860;SDS011;42744;51.094;3.490;2023-06-26T11:51:34;5.32;;;1.00;;
56860;SDS011;42744;51.094;3.490;2023-06-26T11:54:04;3.50;;;1.30;;
56860;SDS011;42744;51.094;3.490;2023-06-26T11:56:30;2.35;;;1.12;;
56860;SDS011;42744;51.094;3.490;2023-06-26T11:58:57;1.62;;;0.85;;
56860;SDS011;42744;51.094;3.490;2023-06-26T12:01:40;2.95;;;1.00;;
56860;SDS011;42744;51.094;3.490;2023-06-26T12:04:11;2.53;;;1.20;;
56860;SDS011;42744;51.094;3.490;2023-06-26T12:06:45;3.80;;;1.25;;
56860;SDS011;42744;51.094;3.490;2023-06-26T12:09:16;3.05;;;1.25;;
56860;SDS011;42744;51.094;3.490;2023-06-26T12:11:44;3.70;;;1.30;;
56860;SDS011;42744;51.094;3.490;2023-06-26T12:14:13;3.12;;;0.93;;
56860;SDS011;42744;51.094;3.490;2023-06-26T12:16:40;2.00;;;1.20;;
56860;SDS011;42744;51.094;3.490;2023-06-26T12:19:07;2.95;;;1.35;;
56860;SDS011;42744;51.094;3.490;2023-06-26T12:24:03;5.70;;;1.17;;
56860;SDS011;42744;51.094;3.490;2023-06-26T12:26:30;4.35;;;1.17;;
56860;SDS011;42744;51.094;3.490;2023-06-26T12:29:06;6.72;;;1.27;;
56860;SDS011;42744;51.094;3.490;2023-06-26T12:31:34;2.17;;;1.45;;
56860;SDS011;42744;51.094;3.490;2023-06-26T12:34:08;2.92;;;1.08;;
56860;SDS011;42744;51.094;3.490;2023-06-26T12:36:40;4.07;;;1.20;;
56860;SDS011;42744;51.094;3.490;2023-06-26T12:39:11;2.53;;;1.00;;
56860;SDS011;42744;51.094;3.490;2023-06-26T12:41:54;4.75;;;1.00;;
56860;SDS011;42744;51.094;3.490;2023-06-26T12:44:29;2.95;;;1.15;;
56860;SDS011;42744;51.094;3.490;2023-06-26T12:46:57;3.50;;;1.30;;
56860;SDS011;42744;51.094;3.490;2023-06-26T12:51:58;3.25;;;1.30;;
56860;SDS011;42744;51.094;3.490;2023-06-26T12:54:26;3.67;;;1.10;;
56860;SDS011;42744;51.094;3.490;2023-06-26T12:56:53;2.25;;;1.00;;
56860;SDS011;42744;51.094;3.490;2023-06-26T12:59:19;1.67;;;0.80;;
56860;SDS011;42744;51.094;3.490;2023-06-26T13:01:46;2.12;;;0.82;;
56860;SDS011;42744;51.094;3.490;2023-06-26T13:04:12;2.40;;;0.90;;
56860;SDS011;42744;51.094;3.490;2023-06-26T13:06:38;3.28;;;1.12;;
56860;SDS011;42744;51.094;3.490;2023-06-26T13:09:04;1.45;;;0.75;;
56860;SDS011;42744;51.094;3.490;2023-06-26T13:11:30;2.00;;;0.73;;
56860;SDS011;42744;51.094;3.490;2023-06-26T13:13:57;3.92;;;0.77;;
56860;SDS011;42744;51.094;3.490;2023-06-26T13:16:23;4.68;;;1.00;;
56860;SDS011;42744;51.094;3.490;2023-06-26T13:18:50;3.05;;;0.90;;
56860;SDS011;42744;51.094;3.490;2023-06-26T13:21:16;1.98;;;1.10;;
56860;SDS011;42744;51.094;3.490;2023-06-26T13:23:43;2.95;;;1.30;;
56860;SDS011;42744;51.094;3.490;2023-06-26T13:26:09;2.53;;;1.05;;
56860;SDS011;42744;51.094;3.490;2023-06-26T13:28:36;6.87;;;1.40;;
56860;SDS011;42744;51.094;3.490;2023-06-26T13:31:03;1.95;;;0.80;;
56860;SDS011;42744;51.094;3.490;2023-06-26T13:33:29;3.20;;;1.02;;
56860;SDS011;42744;51.094;3.490;2023-06-26T13:35:56;2.70;;;0.80;;
56860;SDS011;42744;51.094;3.490;2023-06-26T13:38:23;1.37;;;0.70;;
56860;SDS011;42744;51.094;3.490;2023-06-26T13:40:55;3.22;;;0.93;;
56860;SDS011;42744;51.094;3.490;2023-06-26T13:43:28;2.50;;;0.95;;
56860;SDS011;42744;51.094;3.490;2023-06-26T13:45:55;2.87;;;1.30;;
56860;SDS011;42744;51.094;3.490;2023-06-26T13:48:21;4.25;;;1.20;;
56860;SDS011;42744;51.094;3.490;2023-06-26T13:50:49;3.47;;;1.00;;
56860;SDS011;42744;51.094;3.490;2023-06-26T13:53:16;4.25;;;1.30;;
56860;SDS011;42744;51.094;3.490;2023-06-26T13:55:42;8.43;;;1.10;;
56860;SDS011;42744;51.094;3.490;2023-06-26T13:58:09;5.97;;;1.52;;
56860;SDS011;42744;51.094;3.490;2023-06-26T14:00:36;5.10;;;1.20;;
56860;SDS011;42744;51.094;3.490;2023-06-26T14:03:03;3.78;;;1.00;;
56860;SDS011;42744;51.094;3.490;2023-06-26T14:05:32;2.15;;;1.00;;
56860;SDS011;42744;51.094;3.490;2023-06-26T14:07:58;5.35;;;1.10;;
56860;SDS011;42744;51.094;3.490;2023-06-26T14:10:25;2.67;;;0.98;;
56860;SDS011;42744;51.094;3.490;2023-06-26T14:12:51;6.28;;;1.30;;
56860;SDS011;42744;51.094;3.490;2023-06-26T14:15:17;4.45;;;1.27;;
56860;SDS011;42744;51.094;3.490;2023-06-26T14:17:43;4.05;;;1.10;;
56860;SDS011;42744;51.094;3.490;2023-06-26T14:20:09;4.47;;;0.90;;
56860;SDS011;42744;51.094;3.490;2023-06-26T14:22:41;3.33;;;1.45;;
56860;SDS011;42744;51.094;3.490;2023-06-26T14:25:08;3.92;;;1.20;;
56860;SDS011;42744;51.094;3.490;2023-06-26T14:27:35;3.30;;;0.93;;
56860;SDS011;42744;51.094;3.490;2023-06-26T14:30:02;4.68;;;1.27;;
56860;SDS011;42744;51.094;3.490;2023-06-26T14:32:29;3.87;;;1.30;;
56860;SDS011;42744;51.094;3.490;2023-06-26T14:34:55;2.95;;;1.00;;
56860;SDS011;42744;51.094;3.490;2023-06-26T14:37:22;6.00;;;1.40;;
56860;SDS011;42744;51.094;3.490;2023-06-26T14:39:49;2.10;;;0.95;;
56860;SDS011;42744;51.094;3.490;2023-06-26T14:42:15;2.08;;;1.08;;
56860;SDS011;42744;51.094;3.490;2023-06-26T14:44:41;2.67;;;1.00;;
56860;SDS011;42744;51.094;3.490;2023-06-26T14:47:07;2.65;;;1.00;;
56860;SDS011;42744;51.094;3.490;2023-06-26T14:49:33;2.45;;;1.08;;
56860;SDS011;42744;51.094;3.490;2023-06-26T14:51:59;1.33;;;0.90;;
56860;SDS011;42744;51.094;3.490;2023-06-26T14:54:25;2.97;;;0.90;;
56860;SDS011;42744;51.094;3.490;2023-06-26T14:56:51;2.97;;;1.05;;
56860;SDS011;42744;51.094;3.490;2023-06-26T14:59:17;3.03;;;1.08;;
56860;SDS011;42744;51.094;3.490;2023-06-26T15:01:43;3.75;;;1.08;;
56860;SDS011;42744;51.094;3.490;2023-06-26T15:04:09;3.53;;;1.10;;
56860;SDS011;42744;51.094;3.490;2023-06-26T15:06:35;2.87;;;1.00;;